Hillman, MI (49746)

6:45 AM EDT on July 04, 2015 (GMT -0400)
MesoWest | | Change Station
CLOSE
Current Station
Personal Weather Station
Location: Lachine, MI
Elevation: 750 ft
Nearby Weather Stations

Elev 750 ft 45.07 °N, 83.72 °W | Updated 30 minutes ago

Mostly Cloudy
Mostly Cloudy
60 °F
Feels Like 60 °F
N
1
Wind Variable Wind from North
Gusts 3.0 mph

Today
High -- | Low -- °F
--% Chance of Precip.
Yesterday
High -- | Low -- °F
Precip. -- in
5:53 AM 9:25 PM
Waning Gibbous, 93% visible
Pressure 29.91 in
Visibility 10.0 miles
Clouds Overcast 5500 ft
Dew Point 58 °F
Humidity 94%
Rainfall in
Snow Depth Not available.
UV 0 out of 12
Pollen 4.70 out of 12
Air Quality Not available.
Flu Activity Not available.
METAR KAPN 040954Z AUTO 00000KT 10SM OVC055 16/12 A2992 RMK AO2 SLP129 T01560117

More Conditions Fewer Conditions

Pressure 29.91 in
Visibility 10.0 miles
Clouds Overcast 5500 ft
Dew Point 58 °F
Humidity 94%
Rainfall in
Snow Depth Not available.
UV 0 out of 12
Pollen 4.70 out of 12
Air Quality Not available.
Flu Activity Not available.
METAR KAPN 040954Z AUTO 00000KT 10SM OVC055 16/12 A2992 RMK AO2 SLP129 T01560117

More Conditions Fewer Conditions

Nowcast | as of 6:00 am EDT on July 4, 2015

At 7 am...partly cloudy. Temperature 57. Light winds. At 9 am...partly cloudy. Temperature 61. Light winds. At 11 am...partly cloudy. Temperature 69. Northwest winds 5 mph. At 1 PM...partly cloudy. Temperature 75. Northwest winds 6 mph.

×

10-Day Weather Forecast

×

Almanac

Astronomy

Jul. 04, 2015 Rise Set
Actual Time
Civil Twilight
Nautical Twilight
Astronomical Twilight
Moon
Length of Visible Light
Length of Day
Tomorrow will be .
, % of the Moon is Illuminated

Today's Extremes

State Highs State Lows

Community

WunderPhotos

Upload Photos

1,834,935 photos uploaded!

WunderBlogs® & News

Nearby

Air Quality

  Air Quality AQ Index Pollutant
Not available.

Snow Depth

Station Depth Elevation

Earthquake Activity

City Distance Mag. Time & Date
Minimum magnitude displayed is 2.5.

Coastal Water Temperatures

Place Temperature

Stations

Nearby Weather Stations

Station Location Temp. Windchill Dew Point Humidity Wind Precip. Elev Updated Type